Time;durP1;ratioP1;P1;durP2;ratioP2;P2;SDS_P1;SDS_P2;PMS_P1;PMS_P2;Temp;Humidity;BMP_temperature;BMP_pressure;BME280_temperature;BME280_humidity;BME280_pressure;Samples;Min_cycle;Max_cycle;Signal;HPM_P1;HPM_P2
2021/12/03 00:01:53;;;;;;;7.95;4.55;;;5.40;99.50;;;;;;5089202;28;20020;-73
2021/12/03 00:04:18;;;;;;;6.55;4.22;;;5.40;99.40;;;;;;5104661;28;20063;-73
2021/12/03 00:06:44;;;;;;;7.30;4.13;;;5.50;98.80;;;;;;5103666;28;20507;-73
2021/12/03 00:09:10;;;;;;;7.57;3.80;;;5.60;98.40;;;;;;5092473;28;20513;-73
2021/12/03 00:11:36;;;;;;;8.02;4.00;;;5.60;98.10;;;;;;5098285;28;20028;-73
2021/12/03 00:14:02;;;;;;;5.25;3.08;;;5.60;98.00;;;;;;5110711;28;20111;-73
2021/12/03 00:16:28;;;;;;;7.28;3.47;;;5.60;97.50;;;;;;5095512;28;20484;-73
2021/12/03 00:18:57;;;;;;;8.23;4.43;;;5.60;97.30;;;;;;5108179;28;20497;-73
2021/12/03 00:21:25;;;;;;;8.70;3.97;;;5.80;97.00;;;;;;5106706;28;20077;-73
2021/12/03 00:23:51;;;;;;;7.50;3.25;;;5.70;97.00;;;;;;5094822;28;20440;-73
2021/12/03 00:26:17;;;;;;;5.45;3.33;;;5.80;96.10;;;;;;5096786;28;20099;-73
2021/12/03 00:28:43;;;;;;;5.30;2.92;;;5.80;96.30;;;;;;5093776;28;20063;-73
2021/12/03 00:31:09;;;;;;;5.03;2.67;;;5.80;96.00;;;;;;5098693;28;20047;-73
2021/12/03 00:33:36;;;;;;;5.30;2.55;;;5.90;95.20;;;;;;5112478;28;20028;-73
2021/12/03 00:36:05;;;;;;;6.07;2.67;;;5.60;96.90;;;;;;5107969;28;20059;-73
2021/12/03 00:38:38;;;;;;;6.28;2.80;;;5.60;96.60;;;;;;5111729;28;20024;-73
2021/12/03 00:41:06;;;;;;;5.68;2.88;;;5.60;95.70;;;;;;5105336;28;20023;-73
2021/12/03 00:43:32;;;;;;;4.88;2.22;;;5.70;95.50;;;;;;5108481;28;20031;-73
2021/12/03 00:46:05;;;;;;;5.18;2.72;;;5.80;95.00;;;;;;5096874;28;20024;-73
2021/12/03 00:48:31;;;;;;;4.85;2.47;;;5.80;95.10;;;;;;5100206;28;20031;-73
2021/12/03 00:50:58;;;;;;;6.03;3.35;;;5.80;94.80;;;;;;5105573;28;20172;-73
2021/12/03 00:53:24;;;;;;;6.45;2.55;;;5.60;96.00;;;;;;5103921;28;20653;-73
2021/12/03 00:55:50;;;;;;;4.82;2.17;;;5.60;95.50;;;;;;5094643;28;20032;-73
2021/12/03 00:58:15;;;;;;;4.03;2.00;;;5.40;96.20;;;;;;5095860;28;20111;-73
2021/12/03 01:00:41;;;;;;;6.78;3.47;;;5.30;96.60;;;;;;5109368;28;20102;-73
2021/12/03 01:03:07;;;;;;;4.72;2.40;;;5.20;96.20;;;;;;5093299;28;20116;-73
2021/12/03 01:05:34;;;;;;;5.40;2.08;;;5.10;97.30;;;;;;5108906;28;20108;-73
2021/12/03 01:08:00;;;;;;;6.07;3.03;;;5.10;96.40;;;;;;5112123;28;20605;-73
2021/12/03 01:10:26;;;;;;;4.95;1.90;;;5.40;94.90;;;;;;5103384;28;20038;-73
2021/12/03 01:12:53;;;;;;;4.72;2.42;;;5.40;95.40;;;;;;5092036;28;20024;-73
2021/12/03 01:15:30;;;;;;;4.80;2.28;;;5.30;95.30;;;;;;5097417;28;20024;-73
2021/12/03 01:17:56;;;;;;;4.10;2.08;;;5.40;94.40;;;;;;5106793;28;20457;-73
2021/12/03 01:20:22;;;;;;;4.78;1.90;;;5.40;95.30;;;;;;5109160;28;20436;-73
2021/12/03 01:22:51;;;;;;;4.25;1.92;;;5.50;94.00;;;;;;5109508;28;20393;-73
2021/12/03 01:25:18;;;;;;;4.03;2.03;;;5.50;93.50;;;;;;5098294;28;20035;-73
2021/12/03 01:27:44;;;;;;;4.40;1.95;;;5.50;94.00;;;;;;5103396;28;20035;-73
2021/12/03 01:30:13;;;;;;;6.07;2.28;;;5.60;93.10;;;;;;5111625;28;20015;-73
2021/12/03 01:32:39;;;;;;;4.43;2.42;;;5.80;91.90;;;;;;5109710;28;20100;-73
2021/12/03 01:35:06;;;;;;;3.95;2.08;;;5.70;92.60;;;;;;5111933;28;20034;-73
2021/12/03 01:37:32;;;;;;;2.63;1.35;;;5.60;92.80;;;;;;5104166;28;20023;-73
2021/12/03 01:39:58;;;;;;;3.17;1.70;;;5.40;93.20;;;;;;5108704;28;20091;-73
2021/12/03 01:42:23;;;;;;;4.47;1.98;;;5.50;92.70;;;;;;5091892;28;20103;-73
2021/12/03 01:44:49;;;;;;;3.05;1.40;;;5.40;92.50;;;;;;5093620;28;20058;-73
2021/12/03 01:47:15;;;;;;;3.17;1.40;;;5.60;91.70;;;;;;5107958;28;20245;-73
2021/12/03 01:49:41;;;;;;;3.95;1.70;;;5.30;93.10;;;;;;5110442;28;20040;-73
2021/12/03 01:52:07;;;;;;;2.45;0.90;;;5.50;91.80;;;;;;5094498;28;20058;-73
2021/12/03 01:54:33;;;;;;;2.55;1.00;;;5.00;93.70;;;;;;5095562;28;20509;-73
2021/12/03 01:56:58;;;;;;;2.00;1.10;;;4.90;93.60;;;;;;5109531;28;20032;-73
2021/12/03 01:59:24;;;;;;;3.05;1.10;;;4.90;93.50;;;;;;5103587;27;20466;-73
2021/12/03 02:01:50;;;;;;;3.53;1.38;;;4.80;93.90;;;;;;5096082;28;20110;-73
2021/12/03 02:04:16;;;;;;;5.72;1.70;;;4.90;93.60;;;;;;5102619;28;20023;-73
2021/12/03 02:06:42;;;;;;;2.53;1.33;;;5.30;91.90;;;;;;5096449;27;20071;-73
2021/12/03 02:09:08;;;;;;;5.43;1.88;;;5.20;92.40;;;;;;5095270;28;20513;-73
2021/12/03 02:11:34;;;;;;;2.95;1.48;;;5.20;91.80;;;;;;5094565;28;20032;-73
2021/12/03 02:14:01;;;;;;;2.35;1.05;;;5.10;92.70;;;;;;5107094;28;20028;-73
2021/12/03 02:16:27;;;;;;;4.50;1.17;;;4.80;93.20;;;;;;5106487;28;20106;-73
2021/12/03 02:18:53;;;;;;;1.88;0.95;;;4.80;93.40;;;;;;5104825;28;20031;-73
2021/12/03 02:21:20;;;;;;;3.90;1.10;;;4.60;94.00;;;;;;5108630;28;20028;-73
2021/12/03 02:23:47;;;;;;;2.42;1.08;;;4.70;93.10;;;;;;5093025;28;20039;-73
2021/12/03 02:26:13;;;;;;;3.20;1.08;;;4.60;94.10;;;;;;5102043;28;20035;-73
2021/12/03 02:28:43;;;;;;;3.20;1.27;;;4.50;94.10;;;;;;5103970;28;20124;-73
2021/12/03 02:31:11;;;;;;;1.90;0.93;;;4.80;92.60;;;;;;5092923;28;20024;-73
2021/12/03 02:33:36;;;;;;;2.67;1.08;;;4.90;93.10;;;;;;5096127;28;20032;-72
2021/12/03 02:36:04;;;;;;;2.28;1.25;;;4.70;94.00;;;;;;5095851;28;20107;-73
2021/12/03 02:38:30;;;;;;;2.55;1.00;;;4.80;93.10;;;;;;5112774;28;20027;-73
2021/12/03 02:40:57;;;;;;;2.10;0.77;;;4.70;92.30;;;;;;5101187;28;20032;-73
2021/12/03 02:43:24;;;;;;;2.15;1.05;;;4.70;93.70;;;;;;5094810;28;20024;-73
2021/12/03 02:45:51;;;;;;;2.38;1.02;;;4.70;92.40;;;;;;5106343;28;20076;-73
2021/12/03 02:48:18;;;;;;;2.15;0.82;;;4.80;92.50;;;;;;5115131;28;20050;-73
2021/12/03 02:50:43;;;;;;;2.03;0.98;;;4.60;93.70;;;;;;5110645;28;20098;-73
2021/12/03 02:53:09;;;;;;;1.80;0.80;;;4.70;92.50;;;;;;5099363;28;20098;-73
2021/12/03 02:55:35;;;;;;;2.63;1.27;;;4.50;94.40;;;;;;5113664;28;20054;-73
2021/12/03 02:58:01;;;;;;;2.65;0.93;;;4.70;91.90;;;;;;5102998;28;20031;-73
2021/12/03 03:00:28;;;;;;;2.33;0.90;;;5.10;90.50;;;;;;5103585;28;20027;-73
2021/12/03 03:02:55;;;;;;;2.22;0.90;;;5.20;90.30;;;;;;5108872;28;20486;-73
2021/12/03 03:05:23;;;;;;;2.28;1.05;;;5.40;90.60;;;;;;5105391;27;20549;-73
2021/12/03 03:07:50;;;;;;;2.90;1.05;;;5.30;90.40;;;;;;5093938;28;20031;-73
2021/12/03 03:10:20;;;;;;;1.70;0.70;;;5.10;91.30;;;;;;5103542;28;20076;-73
2021/12/03 03:12:46;;;;;;;1.58;0.70;;;4.80;92.60;;;;;;5114571;28;20373;-73
2021/12/03 03:15:12;;;;;;;2.50;1.13;;;4.60;92.70;;;;;;5098243;28;20424;-73
2021/12/03 03:17:39;;;;;;;3.50;0.70;;;4.50;93.20;;;;;;5093874;28;20371;-73
2021/12/03 03:20:07;;;;;;;2.03;1.05;;;4.60;92.40;;;;;;5106869;28;20497;-73
2021/12/03 03:22:35;;;;;;;1.90;0.80;;;4.70;91.70;;;;;;5094895;28;20482;-73
2021/12/03 03:25:01;;;;;;;1.67;0.80;;;4.70;92.50;;;;;;5094833;28;20024;-73
2021/12/03 03:27:29;;;;;;;2.00;1.08;;;4.60;92.50;;;;;;5093648;28;20098;-73
2021/12/03 03:29:55;;;;;;;1.75;0.68;;;4.70;92.10;;;;;;5112424;28;20028;-72
2021/12/03 03:32:21;;;;;;;0.95;0.80;;;4.60;91.80;;;;;;5105252;28;20019;-73
2021/12/03 03:34:47;;;;;;;3.00;0.80;;;4.70;92.00;;;;;;5109503;28;20036;-73
2021/12/03 03:37:13;;;;;;;1.80;0.70;;;4.70;91.70;;;;;;5095509;28;20028;-73
2021/12/03 03:39:40;;;;;;;1.92;0.70;;;4.60;91.90;;;;;;5111587;28;20385;-73
2021/12/03 03:42:06;;;;;;;1.60;0.77;;;4.80;89.10;;;;;;5105458;28;20516;-73
2021/12/03 03:44:33;;;;;;;1.45;0.63;;;4.70;91.40;;;;;;5108633;28;20028;-73
2021/12/03 03:47:00;;;;;;;2.17;0.77;;;4.70;90.20;;;;;;5112699;28;20506;-73
2021/12/03 03:49:27;;;;;;;1.88;0.60;;;5.00;87.70;;;;;;5097934;28;20036;-73
2021/12/03 03:51:54;;;;;;;2.33;0.90;;;5.20;86.40;;;;;;5095269;28;20385;-73
2021/12/03 03:54:20;;;;;;;1.23;0.50;;;4.90;90.00;;;;;;5094077;28;20037;-73
2021/12/03 03:56:46;;;;;;;1.88;0.70;;;4.80;87.60;;;;;;5104184;28;20043;-73
2021/12/03 03:59:16;;;;;;;1.40;0.60;;;5.40;84.50;;;;;;5100572;28;20051;-73
2021/12/03 04:01:43;;;;;;;1.73;1.02;;;5.30;85.80;;;;;;5108913;28;20036;-72
2021/12/03 04:04:09;;;;;;;2.28;0.60;;;5.20;85.00;;;;;;5093785;28;20024;-72
2021/12/03 04:06:35;;;;;;;0.50;0.40;;;5.30;84.20;;;;;;5105081;28;20095;-72
2021/12/03 04:09:00;;;;;;;1.77;0.77;;;5.20;85.30;;;;;;5096416;28;20559;-72
2021/12/03 04:11:26;;;;;;;0.93;0.50;;;5.00;87.00;;;;;;5086914;28;20024;-72
2021/12/03 04:13:52;;;;;;;1.30;0.70;;;4.80;87.70;;;;;;5092396;28;20026;-72
2021/12/03 04:16:18;;;;;;;1.88;0.65;;;4.80;86.50;;;;;;5097421;28;20019;-72
2021/12/03 04:18:44;;;;;;;1.35;0.47;;;4.60;89.20;;;;;;5099267;28;20035;-72
2021/12/03 04:21:10;;;;;;;1.23;0.47;;;4.50;89.30;;;;;;5103092;28;20101;-72
2021/12/03 04:23:36;;;;;;;0.60;0.40;;;4.40;88.60;;;;;;5093227;28;20478;-72
2021/12/03 04:26:02;;;;;;;1.08;0.50;;;4.90;84.90;;;;;;5098566;28;20032;-72
2021/12/03 04:28:28;;;;;;;1.75;0.68;;;4.50;88.40;;;;;;5090663;28;20032;-72
2021/12/03 04:30:54;;;;;;;1.15;0.60;;;4.20;90.30;;;;;;5091715;28;20026;-72
2021/12/03 04:33:20;;;;;;;0.47;0.30;;;4.00;90.20;;;;;;5098564;28;20035;-72
2021/12/03 04:35:46;;;;;;;1.50;0.77;;;4.20;89.80;;;;;;5087468;28;20710;-73
2021/12/03 04:38:13;;;;;;;1.67;0.60;;;3.90;90.30;;;;;;5088513;28;20052;-72
2021/12/03 04:40:40;;;;;;;1.00;0.40;;;4.00;89.70;;;;;;5103200;28;20032;-72
2021/12/03 04:43:07;;;;;;;1.17;0.40;;;4.10;89.30;;;;;;5105336;28;20031;-72
2021/12/03 04:45:33;;;;;;;0.55;0.32;;;3.90;90.60;;;;;;5101333;28;20036;-72
2021/12/03 04:48:01;;;;;;;0.90;0.38;;;3.60;91.00;;;;;;5089957;28;20101;-72
2021/12/03 04:50:29;;;;;;;1.17;0.30;;;3.60;90.90;;;;;;5089121;28;20024;-72
2021/12/03 04:52:55;;;;;;;0.55;0.20;;;4.10;87.30;;;;;;5088014;28;20020;-73
2021/12/03 04:55:22;;;;;;;0.85;0.35;;;4.10;88.40;;;;;;5093233;28;20024;-72
2021/12/03 04:57:50;;;;;;;1.25;0.75;;;3.70;90.70;;;;;;5087937;28;20024;-72
2021/12/03 05:00:19;;;;;;;0.52;0.20;;;3.80;89.90;;;;;;5093648;28;20115;-72
2021/12/03 05:02:46;;;;;;;1.13;0.43;;;3.90;88.20;;;;;;5099613;28;20089;-72
2021/12/03 05:05:12;;;;;;;0.75;0.47;;;3.70;90.30;;;;;;5090779;28;20020;-72
2021/12/03 05:10:06;;;;;;;0.73;0.30;;;3.50;90.70;;;;;;5103418;28;20093;-72
2021/12/03 05:12:31;;;;;;;0.57;0.25;;;3.30;90.80;;;;;;5104272;28;20584;-72
2021/12/03 05:14:57;;;;;;;0.60;0.30;;;3.30;91.00;;;;;;5103049;28;20103;-72
2021/12/03 05:17:23;;;;;;;1.08;0.50;;;3.30;90.80;;;;;;5103979;28;20019;-72
2021/12/03 05:19:49;;;;;;;0.52;0.32;;;3.70;88.70;;;;;;5091515;28;20229;-72
2021/12/03 05:22:14;;;;;;;1.85;0.20;;;3.70;88.70;;;;;;5084452;28;20122;-72
2021/12/03 05:24:45;;;;;;;5.00;0.30;;;3.90;87.10;;;;;;5086861;28;20024;-72
2021/12/03 05:27:13;;;;;;;0.68;0.40;;;4.00;86.90;;;;;;5084657;28;20032;-72
2021/12/03 05:29:41;;;;;;;0.40;0.25;;;4.10;85.50;;;;;;5098808;28;20028;-72
2021/12/03 05:32:07;;;;;;;2.22;0.35;;;4.00;86.80;;;;;;5088563;28;20063;-72
2021/12/03 05:34:33;;;;;;;0.17;0.17;;;4.30;84.40;;;;;;5106283;28;20105;-72
2021/12/03 05:36:59;;;;;;;1.08;0.25;;;4.20;85.50;;;;;;5089716;28;20494;-72
2021/12/03 05:39:24;;;;;;;2.08;0.22;;;4.20;85.10;;;;;;5089460;28;20054;-72
2021/12/03 05:41:50;;;;;;;0.50;0.13;;;4.40;83.30;;;;;;5088709;28;20545;-72
2021/12/03 05:44:16;;;;;;;0.90;0.30;;;4.20;85.20;;;;;;5104258;28;20032;-72
2021/12/03 05:46:42;;;;;;;0.20;0.20;;;4.00;85.70;;;;;;5090477;28;20056;-73
2021/12/03 05:49:08;;;;;;;0.60;0.30;;;3.80;87.20;;;;;;5088924;28;20040;-72
2021/12/03 05:51:33;;;;;;;1.45;0.40;;;3.70;88.40;;;;;;5093077;28;20023;-72
2021/12/03 05:53:59;;;;;;;1.88;0.30;;;3.80;86.80;;;;;;5106621;28;20427;-72
2021/12/03 05:56:25;;;;;;;0.57;0.17;;;3.70;86.70;;;;;;5095947;28;20381;-72
2021/12/03 05:58:51;;;;;;;0.30;0.20;;;4.10;84.40;;;;;;5099960;28;20036;-73
2021/12/03 06:01:18;;;;;;;2.88;0.77;;;3.90;85.80;;;;;;5088165;28;20500;-72
2021/12/03 06:03:46;;;;;;;0.40;0.17;;;4.10;84.50;;;;;;5089891;28;20066;-72
2021/12/03 06:06:13;;;;;;;1.67;0.50;;;4.30;83.00;;;;;;5089283;28;20081;-72
2021/12/03 06:08:38;;;;;;;2.47;0.50;;;4.70;81.50;;;;;;5101337;28;20110;-73
2021/12/03 06:11:04;;;;;;;0.95;0.32;;;4.50;82.70;;;;;;5088407;28;20119;-72
2021/12/03 06:13:30;;;;;;;2.15;0.63;;;4.40;83.80;;;;;;5094049;28;20031;-72
2021/12/03 06:15:56;;;;;;;1.00;0.38;;;4.50;82.90;;;;;;5105972;28;20053;-73
2021/12/03 06:18:21;;;;;;;3.05;0.50;;;4.50;82.70;;;;;;5090461;28;20028;-72
2021/12/03 06:20:47;;;;;;;1.55;0.52;;;4.60;81.90;;;;;;5090895;28;20108;-71
2021/12/03 06:23:13;;;;;;;1.48;0.40;;;4.50;82.50;;;;;;5100681;28;20031;-72
2021/12/03 06:25:39;;;;;;;0.40;0.10;;;4.30;83.30;;;;;;5101017;28;20024;-72
2021/12/03 06:28:05;;;;;;;0.93;0.32;;;4.00;84.90;;;;;;5096966;28;20066;-72
2021/12/03 06:30:31;;;;;;;0.82;0.30;;;4.00;83.80;;;;;;5091047;28;20115;-72
2021/12/03 06:32:57;;;;;;;2.00;0.68;;;4.10;84.10;;;;;;5088960;28;20099;-72
2021/12/03 06:35:23;;;;;;;1.08;0.43;;;4.10;84.60;;;;;;5099093;28;20432;-72
2021/12/03 06:37:49;;;;;;;1.58;0.60;;;3.70;86.10;;;;;;5099597;28;20091;-73
2021/12/03 06:40:18;;;;;;;1.08;0.40;;;4.10;85.00;;;;;;5108539;28;20032;-73
2021/12/03 06:42:44;;;;;;;1.98;0.52;;;3.90;85.40;;;;;;5106884;28;20024;-72
2021/12/03 06:45:11;;;;;;;1.52;0.60;;;4.30;84.60;;;;;;5107269;28;20032;-73
2021/12/03 06:47:37;;;;;;;0.35;0.20;;;4.30;82.30;;;;;;5110287;28;20129;-73
2021/12/03 06:50:05;;;;;;;0.85;0.40;;;4.20;83.00;;;;;;5110345;28;20045;-73
2021/12/03 06:52:32;;;;;;;1.30;0.45;;;4.20;84.40;;;;;;5107352;28;20024;-73
2021/12/03 06:55:01;;;;;;;2.63;0.28;;;4.00;84.50;;;;;;5103236;28;20073;-73
2021/12/03 06:57:27;;;;;;;1.67;0.60;;;3.90;86.10;;;;;;5097481;28;20016;-73
2021/12/03 06:59:53;;;;;;;3.55;0.95;;;3.70;87.20;;;;;;5102279;28;20083;-74
2021/12/03 07:02:19;;;;;;;2.10;0.60;;;3.60;87.60;;;;;;5096836;28;20024;-74
2021/12/03 07:04:45;;;;;;;3.70;0.30;;;3.50;87.30;;;;;;5087618;28;20573;-75
2021/12/03 07:07:12;;;;;;;0.98;0.45;;;3.50;88.60;;;;;;5088744;28;20194;-75
2021/12/03 07:09:38;;;;;;;0.95;0.55;;;3.40;87.00;;;;;;5103069;28;20032;-75
2021/12/03 07:12:08;;;;;;;0.90;0.35;;;3.70;86.50;;;;;;5106795;28;20439;-75
2021/12/03 07:14:34;;;;;;;1.20;0.40;;;3.30;88.20;;;;;;5106366;28;20031;-74
2021/12/03 07:16:59;;;;;;;1.17;0.25;;;3.70;86.10;;;;;;5106914;28;20701;-75
2021/12/03 07:19:25;;;;;;;1.48;0.45;;;3.40;87.00;;;;;;5102235;28;20028;-75
2021/12/03 07:21:52;;;;;;;1.25;0.40;;;3.50;87.30;;;;;;5091048;28;20054;-75
2021/12/03 07:24:18;;;;;;;0.55;0.30;;;3.40;87.90;;;;;;5106332;28;20120;-75
2021/12/03 07:26:44;;;;;;;1.13;0.43;;;3.50;87.10;;;;;;5106400;28;20517;-75
2021/12/03 07:29:10;;;;;;;2.95;0.38;;;3.40;86.90;;;;;;5106230;28;20031;-75
2021/12/03 07:31:36;;;;;;;0.75;0.22;;;3.40;87.40;;;;;;5105105;28;20095;-75
2021/12/03 07:34:02;;;;;;;0.68;0.38;;;3.40;86.70;;;;;;5086623;28;20088;-75
2021/12/03 07:36:29;;;;;;;0.52;0.40;;;3.30;88.40;;;;;;5084428;28;20028;-75
2021/12/03 07:38:55;;;;;;;1.17;0.38;;;3.30;89.20;;;;;;5085444;28;20062;-75
2021/12/03 07:41:21;;;;;;;1.83;0.60;;;3.20;88.60;;;;;;5085882;28;20420;-75
2021/12/03 07:43:46;;;;;;;2.28;0.40;;;3.60;86.70;;;;;;5099601;28;20035;-75
2021/12/03 07:46:12;;;;;;;1.08;0.45;;;3.70;84.80;;;;;;5105665;28;21019;-75
2021/12/03 07:48:38;;;;;;;1.88;0.65;;;3.60;87.40;;;;;;5092373;28;20044;-75
2021/12/03 07:51:04;;;;;;;2.78;1.17;;;3.40;88.10;;;;;;5084493;28;20378;-75
2021/12/03 07:53:29;;;;;;;2.60;0.98;;;3.40;86.90;;;;;;5085026;28;20024;-75
2021/12/03 07:55:56;;;;;;;1.75;0.88;;;3.40;87.60;;;;;;5084999;28;20378;-75
2021/12/03 07:58:22;;;;;;;1.20;0.47;;;3.50;87.00;;;;;;5085286;28;20021;-75
2021/12/03 08:00:48;;;;;;;1.17;0.43;;;3.40;86.50;;;;;;5102499;28;20120;-75
2021/12/03 08:03:14;;;;;;;1.65;0.60;;;3.30;88.30;;;;;;5085612;28;20028;-75
2021/12/03 08:05:40;;;;;;;0.60;0.25;;;3.30;88.80;;;;;;5096347;28;20504;-75
2021/12/03 08:08:06;;;;;;;0.95;0.45;;;3.20;88.80;;;;;;5099596;28;20035;-75
2021/12/03 08:10:35;;;;;;;1.38;0.43;;;3.50;87.80;;;;;;5095959;28;20044;-75
2021/12/03 08:13:02;;;;;;;2.20;0.80;;;3.30;88.00;;;;;;5101633;28;20023;-76
2021/12/03 08:15:28;;;;;;;2.85;0.90;;;3.30;88.90;;;;;;5105052;28;20044;-75
2021/12/03 08:17:54;;;;;;;1.33;0.40;;;3.40;87.80;;;;;;5105687;28;20116;-74
2021/12/03 08:20:20;;;;;;;1.50;0.60;;;3.20;90.80;;;;;;5084828;28;20032;-72
2021/12/03 08:22:46;;;;;;;1.25;0.40;;;3.80;84.20;;;;;;5096622;28;20024;-73
2021/12/03 08:25:12;;;;;;;1.63;0.70;;;4.10;82.80;;;;;;5096303;28;20023;-73
2021/12/03 08:27:41;;;;;;;2.33;0.73;;;3.90;84.30;;;;;;5102451;28;20059;-72
2021/12/03 08:30:10;;;;;;;10.07;2.60;;;3.90;83.70;;;;;;5105012;28;20039;-73
2021/12/03 08:32:36;;;;;;;2.20;0.80;;;3.50;86.10;;;;;;5105153;28;20027;-73
2021/12/03 08:35:03;;;;;;;3.25;0.57;;;3.90;84.00;;;;;;5105315;28;20819;-72
2021/12/03 08:37:29;;;;;;;3.08;0.55;;;4.10;81.70;;;;;;5104184;28;20038;-73
2021/12/03 08:39:54;;;;;;;1.25;0.55;;;4.10;82.80;;;;;;5105243;27;20027;-73
2021/12/03 08:42:21;;;;;;;1.55;0.60;;;4.00;83.10;;;;;;5105673;28;20053;-73
2021/12/03 08:44:47;;;;;;;2.25;0.57;;;4.20;81.20;;;;;;5105616;28;20369;-73
2021/12/03 08:47:13;;;;;;;23.73;2.78;;;4.40;81.40;;;;;;5091604;28;20048;-72
2021/12/03 08:49:47;;;;;;;2.75;0.90;;;4.30;82.20;;;;;;5084870;28;20036;-72
2021/12/03 08:54:55;;;;;;;6.80;1.70;;;4.00;84.50;;;;;;5104740;28;20055;-72
2021/12/03 08:57:27;;;;;;;2.97;0.90;;;3.90;84.60;;;;;;5104824;28;20469;-73
2021/12/03 08:59:55;;;;;;;20.55;4.10;;;3.90;82.50;;;;;;5104812;28;20137;-73
2021/12/03 09:02:22;;;;;;;5.18;1.13;;;4.20;81.40;;;;;;5090131;28;20028;-73
2021/12/03 09:04:50;;;;;;;2.85;0.93;;;4.40;80.30;;;;;;5084167;28;20024;-73
2021/12/03 09:07:16;;;;;;;2.78;0.82;;;4.30;80.60;;;;;;5084269;28;20056;-73
2021/12/03 09:09:42;;;;;;;1.90;0.70;;;4.30;82.10;;;;;;5084853;28;20711;-73
2021/12/03 09:12:08;;;;;;;1.02;0.45;;;4.40;81.10;;;;;;5092700;28;20028;-73
2021/12/03 09:14:42;;;;;;;1.40;0.50;;;4.20;81.90;;;;;;5100325;28;20032;-73
2021/12/03 09:22:34;;;;;;;0.47;0.25;;;4.40;80.70;;;;;;5084448;28;20374;-73
2021/12/03 09:25:00;;;;;;;2.35;0.45;;;4.40;80.50;;;;;;5088046;28;20012;-73
2021/12/03 09:27:28;;;;;;;2.42;0.52;;;4.70;78.90;;;;;;5104620;28;20068;-73
2021/12/03 09:29:55;;;;;;;3.53;0.50;;;4.30;81.20;;;;;;5104674;28;20031;-72
2021/12/03 09:32:23;;;;;;;1.27;0.40;;;4.70;79.50;;;;;;5104850;28;20024;-73
2021/12/03 09:34:49;;;;;;;1.00;0.43;;;4.90;77.50;;;;;;5103834;28;20088;-72
2021/12/03 09:37:15;;;;;;;2.03;0.63;;;4.60;79.10;;;;;;5104665;28;20487;-73
2021/12/03 09:39:43;;;;;;;0.73;0.20;;;4.20;82.00;;;;;;5104221;28;20440;-73
2021/12/03 09:42:17;;;;;;;2.25;0.45;;;5.20;84.50;;;;;;5104776;28;20039;-73
2021/12/03 09:44:45;;;;;;;2.05;0.40;;;4.80;79.00;;;;;;5104557;28;20107;-73
2021/12/03 09:47:12;;;;;;;0.77;0.40;;;4.50;79.40;;;;;;5087717;28;20481;-73
2021/12/03 09:49:39;;;;;;;2.20;0.45;;;4.70;79.40;;;;;;5101979;28;20032;-73
2021/12/03 09:54:47;;;;;;;0.60;0.30;;;4.80;77.60;;;;;;5104296;28;20039;-73
2021/12/03 09:57:27;;;;;;;1.70;0.50;;;5.10;76.30;;;;;;5103262;28;20035;-73
2021/12/03 10:00:13;;;;;;;2.08;0.40;;;5.10;76.50;;;;;;5104484;28;20025;-73
2021/12/03 10:18:56;;;;;;;3.15;0.80;;;4.90;77.80;;;;;;5088123;28;20092;-73
2021/12/03 10:27:40;;;;;;;7.15;0.90;;;5.10;76.20;;;;;;5088429;28;20089;-73
2021/12/03 10:51:59;;;;;;;0.60;0.40;;;6.10;75.40;;;;;;5102102;28;20126;-73
2021/12/03 11:19:57;;;;;;;0.20;0.20;;;6.90;71.70;;;;;;5106740;28;20024;-73
2021/12/03 11:39:14;;;;;;;0.65;0.20;;;7.20;69.70;;;;;;5106769;28;20368;-73
2021/12/03 12:35:31;;;;;;;1.30;0.40;;;7.70;64.70;;;;;;5075224;28;20040;-73
2021/12/03 12:58:31;;;;;;;1.00;0.50;;;8.20;65.60;;;;;;5084257;28;20036;-73
2021/12/03 13:57:52;;;;;;;1.02;0.50;;;8.10;64.10;;;;;;5093684;28;20230;-73
2021/12/03 14:37:55;;;;;;;2.72;0.57;;;7.60;64.00;;;;;;5085051;28;20039;-72
2021/12/03 14:45:52;;;;;;;0.88;0.30;;;7.30;64.70;;;;;;5086773;28;20039;-71
2021/12/03 14:54:31;;;;;;;1.08;0.52;;;7.00;67.80;;;;;;5106873;28;20534;-73
2021/12/03 14:57:23;;;;;;;1.80;1.13;;;6.80;68.40;;;;;;5094463;28;20036;-73
2021/12/03 14:59:58;;;;;;;0.25;0.20;;;6.60;70.30;;;;;;5085900;28;20498;-72
2021/12/03 15:02:48;;;;;;;1.35;0.50;;;6.80;65.30;;;;;;5086468;28;20028;-72
2021/12/03 15:08:07;;;;;;;1.25;0.35;;;6.60;65.30;;;;;;5078942;28;20051;-72
2021/12/03 15:10:44;;;;;;;1.45;0.47;;;6.60;64.80;;;;;;5107290;28;20024;-72
2021/12/03 15:13:28;;;;;;;0.80;0.30;;;6.60;64.80;;;;;;5106933;27;20027;-71
2021/12/03 15:32:33;;;;;;;1.77;0.85;;;5.50;69.60;;;;;;5071407;28;20591;-71
2021/12/03 15:40:59;;;;;;;3.88;1.60;;;5.10;70.40;;;;;;5095957;28;20955;-71
2021/12/03 16:04:30;;;;;;;;;;;4.40;74.40;;;;;;5085908;28;20054;-72
2021/12/03 16:46:49;;;;;;;2.03;0.60;;;4.10;74.10;;;;;;5086650;28;20055;-71
2021/12/03 16:52:16;;;;;;;2.15;1.10;;;3.90;75.20;;;;;;5083010;28;20035;-71
2021/12/03 16:54:47;;;;;;;2.30;0.77;;;3.80;76.90;;;;;;5104208;28;20119;-72
2021/12/03 16:57:14;;;;;;;1.50;0.70;;;3.50;77.50;;;;;;5086752;28;20035;-72
2021/12/03 16:59:43;;;;;;;1.55;0.60;;;3.40;77.90;;;;;;5087769;28;20485;-72
2021/12/03 17:02:26;;;;;;;2.03;0.57;;;3.40;77.80;;;;;;5089646;28;20024;-73
2021/12/03 17:56:33;;;;;;;2.38;0.82;;;2.80;79.70;;;;;;5105505;28;20592;-75
2021/12/03 18:01:37;;;;;;;3.35;1.33;;;2.70;79.80;;;;;;5099235;28;20118;-77
2021/12/03 18:04:12;;;;;;;6.65;1.80;;;2.70;80.00;;;;;;5084975;28;20559;-75
2021/12/03 18:47:12;;;;;;;2.42;0.90;;;2.50;78.80;;;;;;5105474;28;20039;-75
2021/12/03 18:50:04;;;;;;;2.78;1.25;;;2.70;78.00;;;;;;5091777;28;20036;-76
2021/12/03 18:55:18;;;;;;;3.55;1.10;;;2.40;80.20;;;;;;5098826;28;20063;-73
2021/12/03 18:57:45;;;;;;;3.20;0.75;;;2.30;80.80;;;;;;5090711;28;20366;-76
2021/12/03 19:00:16;;;;;;;3.38;0.98;;;2.20;80.60;;;;;;5090059;28;20421;-76
2021/12/03 19:02:47;;;;;;;2.15;0.77;;;2.20;80.60;;;;;;5092583;28;20027;-78
2021/12/03 19:07:47;;;;;;;3.00;0.90;;;1.90;82.50;;;;;;5094243;28;20035;-80
2021/12/03 19:10:19;;;;;;;5.15;1.05;;;1.90;82.70;;;;;;5100091;28;20714;-79
2021/12/03 19:12:50;;;;;;;2.40;1.10;;;1.90;82.60;;;;;;5096104;28;20054;-76
2021/12/03 19:15:16;;;;;;;2.88;1.45;;;2.00;82.60;;;;;;5097796;28;20032;-76
2021/12/03 19:17:44;;;;;;;5.85;1.60;;;2.00;82.80;;;;;;5098047;28;20032;-73
2021/12/03 19:20:15;;;;;;;3.85;1.70;;;2.00;82.10;;;;;;5092990;28;20020;-77
2021/12/03 19:22:41;;;;;;;5.68;1.10;;;2.10;81.40;;;;;;5085360;28;20085;-76
2021/12/03 19:25:07;;;;;;;3.33;1.15;;;2.20;81.10;;;;;;5087376;28;20016;-76
2021/12/03 19:27:33;;;;;;;4.93;1.83;;;2.10;82.80;;;;;;5095712;28;20032;-77
2021/12/03 19:30:00;;;;;;;5.55;2.90;;;1.90;82.30;;;;;;5093491;28;20046;-77
2021/12/03 19:32:28;;;;;;;3.53;1.55;;;2.00;81.90;;;;;;5100425;28;20032;-76
2021/12/03 19:34:55;;;;;;;5.22;2.47;;;2.10;82.20;;;;;;5101595;27;20035;-75
2021/12/03 19:37:23;;;;;;;8.32;3.08;;;2.00;81.70;;;;;;5102509;28;20024;-76
2021/12/03 19:39:49;;;;;;;8.27;3.55;;;2.10;81.40;;;;;;5098756;28;20369;-76
2021/12/03 19:42:20;;;;;;;8.43;3.83;;;2.20;81.80;;;;;;5096532;28;20036;-76
2021/12/03 19:44:55;;;;;;;8.15;3.80;;;2.00;82.10;;;;;;5095684;28;20039;-76
2021/12/03 19:47:32;;;;;;;4.75;1.90;;;2.00;82.30;;;;;;5086889;28;20158;-76
2021/12/03 19:52:41;;;;;;;8.77;2.25;;;2.20;80.10;;;;;;5093186;28;20038;-76
2021/12/03 19:55:07;;;;;;;5.82;2.65;;;2.40;80.10;;;;;;5085639;28;20028;-76
2021/12/03 19:57:32;;;;;;;5.68;2.38;;;2.30;80.30;;;;;;5088924;28;20028;-75
2021/12/03 19:59:58;;;;;;;6.60;2.22;;;2.00;82.90;;;;;;5099934;28;20034;-76
2021/12/03 20:02:24;;;;;;;5.68;2.80;;;2.00;81.00;;;;;;5093352;28;20020;-76
2021/12/03 20:04:50;;;;;;;4.68;1.75;;;2.10;81.60;;;;;;5100778;28;20038;-76
2021/12/03 20:07:16;;;;;;;7.18;2.33;;;2.10;82.00;;;;;;5086877;28;20032;-76
2021/12/03 20:09:47;;;;;;;6.90;2.30;;;1.90;83.40;;;;;;5105665;27;20031;-76
2021/12/03 20:12:18;;;;;;;5.70;3.03;;;1.90;82.20;;;;;;5058945;28;20084;-77
2021/12/03 20:14:47;;;;;;;5.40;1.90;;;2.00;81.70;;;;;;5065960;28;20024;-76
2021/12/03 20:17:31;;;;;;;5.65;2.80;;;2.00;81.90;;;;;;5052249;28;20033;-76
2021/12/03 20:20:00;;;;;;;6.38;1.75;;;1.90;81.90;;;;;;5055610;28;20028;-76
2021/12/03 20:22:38;;;;;;;6.53;2.13;;;1.90;81.00;;;;;;5048869;28;20037;-76
2021/12/03 20:27:44;;;;;;;7.05;2.10;;;2.20;79.40;;;;;;5061657;28;20123;-76
2021/12/03 20:30:23;;;;;;;6.55;2.30;;;2.10;81.90;;;;;;5063806;28;20035;-77
2021/12/03 20:38:03;;;;;;;3.72;1.35;;;1.50;84.30;;;;;;5058381;28;20454;-76
2021/12/03 20:40:33;;;;;;;3.67;1.25;;;1.80;82.30;;;;;;5063419;28;20056;-76
2021/12/03 21:10:28;;;;;;;3.25;1.33;;;1.60;83.20;;;;;;5045031;28;20565;-76
2021/12/03 21:12:56;;;;;;;5.40;1.88;;;1.80;83.60;;;;;;5063200;28;20120;-76
2021/12/03 21:20:52;;;;;;;5.40;2.05;;;1.40;86.30;;;;;;5054265;28;20038;-76
2021/12/03 21:23:20;;;;;;;6.55;3.17;;;1.50;84.80;;;;;;5057356;28;20025;-76
2021/12/03 21:25:51;;;;;;;5.18;2.30;;;1.50;85.10;;;;;;5060551;28;20209;-76
2021/12/03 21:28:30;;;;;;;6.93;2.25;;;1.50;84.10;;;;;;5047067;28;20033;-76
2021/12/03 21:31:06;;;;;;;4.15;1.83;;;1.50;85.50;;;;;;5058063;28;20025;-76
2021/12/03 21:41:27;;;;;;;4.53;1.98;;;1.80;83.90;;;;;;5063271;28;20028;-76